Time;durP1;ratioP1;P1;durP2;ratioP2;P2;SDS_P1;SDS_P2;PMS_P1;PMS_P2;Temp;Humidity;BMP_temperature;BMP_pressure;BME280_temperature;BME280_humidity;BME280_pressure;Samples;Min_cycle;Max_cycle;Signal;HPM_P1;HPM_P2
2021/08/31 00:00:59;;;;;;;38.50;24.47;;;14.00;99.90;;;;;;5050965;28;20688;-64
2021/08/31 00:03:25;;;;;;;35.57;24.67;;;14.00;99.90;;;;;;5066174;28;20185;-65
2021/08/31 00:05:51;;;;;;;37.47;24.07;;;14.00;99.90;;;;;;5071249;28;20268;-64
2021/08/31 00:08:16;;;;;;;40.33;24.93;;;13.90;99.90;;;;;;5058026;28;20236;-65
2021/08/31 00:10:42;;;;;;;37.03;24.90;;;13.90;99.90;;;;;;5051047;28;20171;-65
2021/08/31 00:13:08;;;;;;;38.37;24.87;;;13.90;99.90;;;;;;5062563;28;20201;-64
2021/08/31 00:15:34;;;;;;;36.73;26.03;;;13.90;99.90;;;;;;5070007;28;20672;-65
2021/08/31 00:18:01;;;;;;;36.17;24.40;;;13.80;99.90;;;;;;5060467;28;20210;-64
2021/08/31 00:20:28;;;;;;;37.10;22.60;;;13.80;99.90;;;;;;5050983;28;20249;-64
2021/08/31 00:22:54;;;;;;;35.23;23.83;;;13.80;99.90;;;;;;5059355;28;20186;-65
2021/08/31 00:25:19;;;;;;;38.03;24.73;;;13.70;99.90;;;;;;5071074;28;20188;-65
2021/08/31 00:27:45;;;;;;;35.07;24.90;;;13.70;99.90;;;;;;5067766;28;20663;-64
2021/08/31 00:30:11;;;;;;;35.70;25.37;;;13.70;99.90;;;;;;5070929;28;20209;-64
2021/08/31 00:32:37;;;;;;;36.00;25.20;;;13.70;99.90;;;;;;5065964;28;20591;-65
2021/08/31 00:35:03;;;;;;;35.10;24.00;;;13.60;99.90;;;;;;5050822;28;20260;-64
2021/08/31 00:37:29;;;;;;;40.07;26.00;;;13.60;99.90;;;;;;5052293;28;20182;-64
2021/08/31 00:39:54;;;;;;;36.90;24.47;;;13.60;99.90;;;;;;5051601;28;20715;-64
2021/08/31 00:42:20;;;;;;;40.83;26.13;;;13.60;99.90;;;;;;5061939;28;20269;-64
2021/08/31 00:44:46;;;;;;;41.73;25.23;;;13.50;99.90;;;;;;5074687;28;20166;-64
2021/08/31 00:47:11;;;;;;;42.80;25.63;;;13.50;99.90;;;;;;5066239;28;20203;-64
2021/08/31 00:49:37;;;;;;;45.40;26.27;;;13.50;99.90;;;;;;5054516;28;20167;-64
2021/08/31 00:52:03;;;;;;;40.13;26.33;;;13.40;99.90;;;;;;5059361;28;20208;-65
2021/08/31 00:54:30;;;;;;;41.20;26.70;;;13.40;99.90;;;;;;5074601;28;20189;-64
2021/08/31 00:56:58;;;;;;;36.90;24.43;;;13.30;99.90;;;;;;5070779;28;20217;-64
2021/08/31 00:59:23;;;;;;;42.40;25.37;;;13.30;99.90;;;;;;5054125;28;20171;-64
2021/08/31 01:01:50;;;;;;;44.50;25.77;;;13.30;99.90;;;;;;5056219;28;20197;-65
2021/08/31 01:04:18;;;;;;;43.87;27.73;;;13.30;99.90;;;;;;5073116;28;20272;-64
2021/08/31 01:06:43;;;;;;;44.57;25.97;;;13.30;99.90;;;;;;5072029;28;20209;-65
2021/08/31 01:09:09;;;;;;;42.77;28.10;;;13.30;99.90;;;;;;5072260;28;20170;-64
2021/08/31 01:11:38;;;;;;;47.10;28.50;;;13.30;99.90;;;;;;5074033;28;20607;-65
2021/08/31 01:14:06;;;;;;;48.10;31.13;;;13.30;99.90;;;;;;5054780;28;20171;-64
2021/08/31 01:16:32;;;;;;;47.57;29.20;;;13.30;99.90;;;;;;5054131;28;20555;-64
2021/08/31 01:18:57;;;;;;;49.20;30.60;;;13.20;99.90;;;;;;5070922;28;20192;-65
2021/08/31 01:21:23;;;;;;;52.57;28.10;;;13.30;99.90;;;;;;5073739;28;20585;-64
2021/08/31 01:23:49;;;;;;;47.90;29.63;;;13.30;99.90;;;;;;5057529;28;20183;-64
2021/08/31 01:26:15;;;;;;;46.57;29.10;;;13.30;99.90;;;;;;5052594;28;20252;-64
2021/08/31 01:28:42;;;;;;;54.93;29.40;;;13.30;99.90;;;;;;5068348;28;20179;-65
2021/08/31 01:31:08;;;;;;;48.53;29.93;;;13.30;99.90;;;;;;5072354;28;20171;-64
2021/08/31 01:33:34;;;;;;;49.23;30.50;;;13.20;99.90;;;;;;5072362;28;20216;-64
2021/08/31 01:36:21;;;;;;;46.37;28.07;;;13.20;99.90;;;;;;5073558;28;20231;-64
2021/08/31 01:38:57;;;;;;;48.70;30.07;;;13.20;99.90;;;;;;5065101;28;20205;-64
2021/08/31 01:41:24;;;;;;;44.90;29.47;;;13.20;99.90;;;;;;5073262;28;20178;-65
2021/08/31 01:43:50;;;;;;;52.13;31.67;;;13.20;99.90;;;;;;5059035;28;20197;-65
2021/08/31 01:46:16;;;;;;;51.73;31.23;;;13.20;99.90;;;;;;5053593;28;20203;-65
2021/08/31 01:48:41;;;;;;;55.33;31.63;;;13.20;99.90;;;;;;5065936;28;20178;-64
2021/08/31 01:51:07;;;;;;;52.73;32.83;;;13.20;99.90;;;;;;5072961;28;20166;-65
2021/08/31 01:53:36;;;;;;;50.73;32.23;;;13.20;99.90;;;;;;5060730;28;20179;-64
2021/08/31 01:56:03;;;;;;;61.37;33.23;;;13.20;99.90;;;;;;5054520;28;20732;-65
2021/08/31 01:58:29;;;;;;;64.47;33.13;;;13.20;99.90;;;;;;5053442;28;20562;-65
2021/08/31 02:00:54;;;;;;;58.63;31.97;;;13.20;99.90;;;;;;5058672;28;20182;-65
2021/08/31 02:03:20;;;;;;;49.20;30.40;;;13.20;99.90;;;;;;5073121;28;20185;-65
2021/08/31 02:05:46;;;;;;;50.30;29.60;;;13.20;99.90;;;;;;5068753;28;20234;-65
2021/08/31 02:08:12;;;;;;;49.80;30.10;;;13.10;99.90;;;;;;5066095;28;20170;-68
2021/08/31 02:10:37;;;;;;;51.70;31.50;;;13.10;99.90;;;;;;5071304;28;20182;-68
2021/08/31 02:13:03;;;;;;;49.70;32.03;;;13.00;99.90;;;;;;5054614;28;20182;-66
2021/08/31 02:15:29;;;;;;;58.93;31.67;;;13.00;99.90;;;;;;5054822;28;20224;-68
2021/08/31 02:17:55;;;;;;;50.03;30.73;;;13.00;99.90;;;;;;5073473;28;20170;-69
2021/08/31 02:20:21;;;;;;;54.83;32.00;;;12.90;99.90;;;;;;5072845;28;20719;-68
2021/08/31 02:22:46;;;;;;;53.50;30.97;;;12.90;99.90;;;;;;5072553;28;20265;-69
2021/08/31 02:25:12;;;;;;;51.43;32.40;;;12.90;99.90;;;;;;5073896;28;20281;-70
2021/08/31 02:27:38;;;;;;;52.47;30.30;;;12.90;99.90;;;;;;5056913;28;20675;-66
2021/08/31 02:30:07;;;;;;;59.43;33.63;;;12.90;99.90;;;;;;5054082;28;20540;-68
2021/08/31 02:32:33;;;;;;;52.50;32.67;;;12.80;99.90;;;;;;5070555;28;20851;-69
2021/08/31 02:34:59;;;;;;;54.27;32.70;;;12.80;99.90;;;;;;5073861;28;20196;-67
2021/08/31 02:37:25;;;;;;;61.73;33.07;;;12.80;99.90;;;;;;5067602;28;20705;-68
2021/08/31 02:39:50;;;;;;;58.47;35.90;;;12.70;99.90;;;;;;5073702;28;20174;-67
2021/08/31 02:42:16;;;;;;;57.30;34.47;;;12.70;99.90;;;;;;5069653;28;20234;-69
2021/08/31 02:44:42;;;;;;;64.13;35.20;;;12.70;99.90;;;;;;5072989;28;20174;-69
2021/08/31 02:47:08;;;;;;;64.93;35.00;;;12.70;99.90;;;;;;5058154;28;20215;-67
2021/08/31 02:49:33;;;;;;;57.87;34.87;;;12.70;99.90;;;;;;5053151;28;20177;-71
2021/08/31 02:51:59;;;;;;;59.50;31.50;;;12.70;99.90;;;;;;5067367;28;20209;-70
2021/08/31 02:54:25;;;;;;;57.87;32.53;;;12.70;99.90;;;;;;5072780;28;20202;-69
2021/08/31 02:56:51;;;;;;;63.17;34.93;;;12.70;99.90;;;;;;5060765;28;20286;-68
2021/08/31 02:59:16;;;;;;;57.43;32.87;;;12.60;99.90;;;;;;5067764;28;20182;-67
2021/08/31 03:04:27;;;;;;;54.90;32.20;;;12.70;99.90;;;;;;5052574;28;20180;-68
2021/08/31 03:06:53;;;;;;;63.53;35.50;;;12.70;99.90;;;;;;5064260;28;20214;-68
2021/08/31 03:09:18;;;;;;;68.20;37.03;;;12.70;99.90;;;;;;5073205;28;20167;-70
2021/08/31 03:11:44;;;;;;;59.33;34.87;;;12.70;99.90;;;;;;5063731;28;20197;-69
2021/08/31 03:14:10;;;;;;;67.30;37.00;;;12.70;99.90;;;;;;5053534;28;20163;-68
2021/08/31 03:16:36;;;;;;;70.20;36.63;;;12.70;99.90;;;;;;5059106;28;20209;-67
2021/08/31 03:19:01;;;;;;;62.93;38.13;;;12.70;99.90;;;;;;5071463;28;20170;-69
2021/08/31 03:21:28;;;;;;;67.07;36.80;;;12.60;99.90;;;;;;5066702;28;20649;-68
2021/08/31 03:23:53;;;;;;;70.07;37.97;;;12.70;99.90;;;;;;5053124;28;20225;-66
2021/08/31 03:26:19;;;;;;;68.60;37.17;;;12.70;99.90;;;;;;5055926;28;20693;-68
2021/08/31 03:28:45;;;;;;;69.70;38.23;;;12.70;99.90;;;;;;5072891;28;20203;-69
2021/08/31 03:31:10;;;;;;;74.87;39.97;;;12.60;99.90;;;;;;5071447;28;20247;-67
2021/08/31 03:33:36;;;;;;;73.10;38.73;;;12.70;99.90;;;;;;5067578;28;20251;-71
2021/08/31 03:36:04;;;;;;;70.63;38.13;;;12.70;99.90;;;;;;5060154;28;20287;-71
2021/08/31 03:38:30;;;;;;;71.23;38.17;;;12.60;99.90;;;;;;5051534;28;20177;-71
2021/08/31 03:40:56;;;;;;;65.70;35.40;;;12.60;99.90;;;;;;5072319;28;20515;-69
2021/08/31 03:43:22;;;;;;;68.17;36.67;;;12.60;99.90;;;;;;5071736;28;20181;-69
2021/08/31 03:45:47;;;;;;;76.93;37.07;;;12.60;99.90;;;;;;5054305;28;20202;-69
2021/08/31 03:48:13;;;;;;;74.70;38.33;;;12.60;99.90;;;;;;5052271;28;20205;-69
2021/08/31 03:50:38;;;;;;;75.53;36.93;;;12.60;99.90;;;;;;5068794;28;20185;-68
2021/08/31 03:53:04;;;;;;;78.07;38.47;;;12.60;99.90;;;;;;5071519;28;20220;-64
2021/08/31 03:55:30;;;;;;;87.27;40.83;;;12.60;99.90;;;;;;5056212;28;20225;-64
2021/08/31 03:57:55;;;;;;;93.30;40.77;;;12.60;99.90;;;;;;5051568;28;20167;-64
2021/08/31 04:00:21;;;;;;;80.73;40.87;;;12.60;99.90;;;;;;5063864;28;20189;-64
2021/08/31 04:02:47;;;;;;;87.33;42.13;;;12.60;99.90;;;;;;5071413;28;20226;-64
2021/08/31 04:05:12;;;;;;;81.73;41.03;;;12.70;99.90;;;;;;5069695;28;20202;-64
2021/08/31 04:07:38;;;;;;;93.13;43.83;;;12.70;99.90;;;;;;5071370;28;20206;-64
2021/08/31 04:10:04;;;;;;;90.37;42.33;;;12.70;99.90;;;;;;5061272;28;20175;-64
2021/08/31 04:12:30;;;;;;;91.13;41.93;;;12.70;99.90;;;;;;5051128;28;20171;-64
2021/08/31 04:14:55;;;;;;;93.17;43.43;;;12.70;99.90;;;;;;5059551;28;20184;-65
2021/08/31 04:17:21;;;;;;;108.93;45.90;;;12.70;99.90;;;;;;5074499;28;20521;-65
2021/08/31 04:19:46;;;;;;;107.27;47.37;;;12.80;99.90;;;;;;5068933;28;20183;-64
2021/08/31 04:22:12;;;;;;;118.70;48.93;;;12.90;99.90;;;;;;5055184;28;20171;-64
2021/08/31 04:24:38;;;;;;;119.63;53.97;;;13.00;99.90;;;;;;5059179;28;20170;-66
2021/08/31 04:27:04;;;;;;;122.80;50.67;;;13.00;99.90;;;;;;5074903;28;20206;-66
2021/08/31 04:29:30;;;;;;;128.40;48.07;;;13.10;99.90;;;;;;5071938;28;20182;-64
2021/08/31 04:31:55;;;;;;;126.97;50.40;;;13.20;99.90;;;;;;5054934;28;20550;-64
2021/08/31 04:34:21;;;;;;;117.33;47.60;;;13.30;99.90;;;;;;5074008;28;20174;-66
2021/08/31 04:36:46;;;;;;;131.73;50.17;;;13.30;99.90;;;;;;5062052;22;20321;-67
2021/08/31 04:39:12;;;;;;;131.20;51.20;;;13.40;99.90;;;;;;5034406;28;20175;-67
2021/08/31 04:41:38;;;;;;;125.97;50.27;;;13.50;99.90;;;;;;5034489;28;20176;-65
2021/08/31 04:44:04;;;;;;;134.93;50.90;;;13.60;99.90;;;;;;5034687;28;20230;-66
2021/08/31 04:46:29;;;;;;;134.37;53.63;;;13.60;99.90;;;;;;5034030;28;20349;-66
2021/08/31 04:48:55;;;;;;;131.50;52.33;;;13.70;99.90;;;;;;5033314;28;20175;-65
2021/08/31 04:51:20;;;;;;;135.27;53.60;;;13.80;99.90;;;;;;5027372;28;20236;-65
2021/08/31 04:53:46;;;;;;;138.17;49.30;;;13.80;99.90;;;;;;5015039;28;20645;-66
2021/08/31 04:56:11;;;;;;;158.90;52.57;;;13.80;99.90;;;;;;5021602;28;20261;-66
2021/08/31 04:58:37;;;;;;;147.40;50.97;;;13.90;99.90;;;;;;5034833;28;20207;-65
2021/08/31 05:01:03;;;;;;;141.67;49.70;;;13.90;99.90;;;;;;5031768;28;20175;-67
2021/08/31 05:03:29;;;;;;;149.40;52.40;;;13.90;99.90;;;;;;5034383;28;20632;-66
2021/08/31 05:05:54;;;;;;;146.50;51.13;;;14.00;99.90;;;;;;5034088;28;20196;-66
2021/08/31 05:08:20;;;;;;;154.90;50.90;;;14.00;99.90;;;;;;5034350;28;20654;-65
2021/08/31 05:10:46;;;;;;;162.40;53.23;;;14.00;99.90;;;;;;5032028;28;20174;-66
2021/08/31 05:13:11;;;;;;;148.10;55.77;;;14.10;99.90;;;;;;5014631;28;20259;-67
2021/08/31 05:15:37;;;;;;;148.70;52.33;;;14.10;99.90;;;;;;5014339;28;20602;-66
2021/08/31 05:18:04;;;;;;;166.33;53.27;;;14.20;99.90;;;;;;5032066;28;20184;-66
2021/08/31 05:20:32;;;;;;;173.53;52.50;;;14.30;99.90;;;;;;5014210;28;20596;-66
2021/08/31 05:22:57;;;;;;;166.93;52.93;;;14.20;99.90;;;;;;5032948;28;20183;-66
2021/08/31 05:25:23;;;;;;;173.23;53.90;;;14.20;99.90;;;;;;5034023;28;20275;-66
2021/08/31 05:27:49;;;;;;;178.67;55.50;;;14.20;99.90;;;;;;5015777;28;20295;-66
2021/08/31 05:30:14;;;;;;;176.53;54.37;;;14.20;99.90;;;;;;5013938;28;20222;-66
2021/08/31 05:32:40;;;;;;;173.23;55.13;;;14.20;99.90;;;;;;5029296;28;20572;-65
2021/08/31 05:35:06;;;;;;;196.07;56.73;;;14.20;99.90;;;;;;5033908;28;20221;-66
2021/08/31 05:37:32;;;;;;;206.20;54.97;;;14.20;99.90;;;;;;5019718;28;20293;-66
2021/08/31 05:39:57;;;;;;;200.33;57.07;;;14.30;99.90;;;;;;5013792;28;20220;-65
2021/08/31 05:42:23;;;;;;;225.53;57.03;;;14.20;99.90;;;;;;5015120;28;20211;-66
2021/08/31 05:44:49;;;;;;;215.47;55.33;;;14.20;99.90;;;;;;5013884;28;20180;-67
2021/08/31 05:47:14;;;;;;;198.10;52.77;;;14.20;99.90;;;;;;5024856;28;20290;-66
2021/08/31 05:49:41;;;;;;;209.70;57.37;;;14.20;99.90;;;;;;5032668;28;20241;-66
2021/08/31 05:52:07;;;;;;;212.33;56.70;;;14.30;99.90;;;;;;5023691;28;20183;-65
2021/08/31 05:54:33;;;;;;;226.47;58.37;;;14.40;99.90;;;;;;5013885;28;20172;-67
2021/08/31 05:57:01;;;;;;;218.33;57.07;;;14.30;99.90;;;;;;5021366;28;20226;-67
2021/08/31 05:59:26;;;;;;;238.83;58.83;;;14.30;99.90;;;;;;5031822;28;20182;-66
2021/08/31 06:01:52;;;;;;;214.47;56.47;;;14.30;99.90;;;;;;5025822;28;20180;-66
2021/08/31 06:04:22;;;;;;;219.00;56.67;;;14.30;99.90;;;;;;5013537;28;20183;-65
2021/08/31 06:06:47;;;;;;;244.00;59.33;;;14.40;99.90;;;;;;5018429;28;20684;-66
2021/08/31 06:09:13;;;;;;;243.40;58.67;;;14.50;99.90;;;;;;5018399;28;20229;-66
2021/08/31 06:11:40;;;;;;;233.77;60.13;;;14.60;99.90;;;;;;5032165;28;20172;-67
2021/08/31 06:14:06;;;;;;;256.20;62.50;;;14.60;99.90;;;;;;5033011;28;20206;-66
2021/08/31 06:16:32;;;;;;;247.67;59.17;;;14.60;99.90;;;;;;5030383;28;20294;-67
2021/08/31 06:18:58;;;;;;;268.33;60.67;;;14.60;99.90;;;;;;5036364;28;20182;-67
2021/08/31 06:21:24;;;;;;;233.00;60.53;;;14.60;99.90;;;;;;5031778;28;20258;-67
2021/08/31 06:23:49;;;;;;;254.83;62.47;;;14.60;99.90;;;;;;5013175;28;20180;-67
2021/08/31 06:26:15;;;;;;;225.73;60.37;;;14.70;99.90;;;;;;5025671;28;20287;-66
2021/08/31 06:28:41;;;;;;;252.60;58.93;;;14.70;99.90;;;;;;5032852;28;20175;-66
2021/08/31 06:31:06;;;;;;;252.37;62.50;;;14.70;99.90;;;;;;5020969;28;20259;-66
2021/08/31 06:33:32;;;;;;;235.37;60.37;;;14.80;99.90;;;;;;5012905;28;20176;-67
2021/08/31 06:35:57;;;;;;;246.20;59.37;;;14.90;99.90;;;;;;5016605;28;20704;-66
2021/08/31 06:38:23;;;;;;;241.23;61.93;;;15.00;99.90;;;;;;5012820;28;20247;-67
2021/08/31 06:40:48;;;;;;;235.37;64.60;;;15.10;99.90;;;;;;5017612;28;20550;-66
2021/08/31 06:43:14;;;;;;;242.23;56.40;;;15.10;99.90;;;;;;5012891;28;20173;-65
2021/08/31 06:45:40;;;;;;;251.73;61.73;;;15.20;99.90;;;;;;5022718;28;20623;-67
2021/08/31 06:48:05;;;;;;;252.97;64.17;;;15.20;99.90;;;;;;5032546;28;20246;-67
2021/08/31 06:50:32;;;;;;;264.87;63.07;;;15.30;99.90;;;;;;5021281;28;20207;-67
2021/08/31 06:52:57;;;;;;;242.63;64.87;;;15.30;99.90;;;;;;5012775;28;20595;-67
2021/08/31 06:55:23;;;;;;;237.63;60.17;;;15.30;99.90;;;;;;5020541;28;20270;-66
2021/08/31 06:57:48;;;;;;;257.60;62.50;;;15.40;99.90;;;;;;5024669;28;20207;-66
2021/08/31 07:00:14;;;;;;;228.63;61.70;;;15.50;99.90;;;;;;5011445;28;20172;-67
2021/08/31 07:02:40;;;;;;;217.47;57.47;;;15.60;99.90;;;;;;5017515;28;20698;-66
2021/08/31 07:05:06;;;;;;;236.23;60.97;;;15.60;99.90;;;;;;5016775;28;20621;-67
2021/08/31 07:07:32;;;;;;;207.87;60.73;;;15.50;99.90;;;;;;5015691;28;20211;-67
2021/08/31 07:09:58;;;;;;;230.93;63.97;;;15.50;99.90;;;;;;5031730;28;20193;-66
2021/08/31 07:12:23;;;;;;;199.27;57.90;;;15.50;99.90;;;;;;5029966;28;20653;-67
2021/08/31 07:14:51;;;;;;;219.30;65.03;;;15.50;99.90;;;;;;5012181;28;20539;-66
2021/08/31 07:17:17;;;;;;;222.30;65.03;;;15.50;99.90;;;;;;5012588;28;20184;-67
2021/08/31 07:19:42;;;;;;;201.40;60.87;;;15.50;99.90;;;;;;5012461;28;20547;-67
2021/08/31 07:22:08;;;;;;;186.17;53.70;;;15.60;99.90;;;;;;5012072;28;20188;-67
2021/08/31 07:24:34;;;;;;;192.63;54.27;;;15.70;99.90;;;;;;5013403;28;20649;-66
2021/08/31 07:26:59;;;;;;;183.93;55.20;;;15.80;99.90;;;;;;5011877;28;20204;-65
2021/08/31 07:29:25;;;;;;;181.23;54.33;;;15.70;99.90;;;;;;5012963;28;20191;-67
2021/08/31 07:31:52;;;;;;;177.90;60.03;;;15.80;99.90;;;;;;5011869;28;20249;-67
2021/08/31 07:34:18;;;;;;;150.53;54.37;;;15.90;99.90;;;;;;5013148;28;20200;-65
2021/08/31 07:36:45;;;;;;;150.17;52.60;;;16.00;99.90;;;;;;5030944;28;20618;-66
2021/08/31 07:39:11;;;;;;;122.03;51.30;;;16.10;99.90;;;;;;5016151;28;20596;-68
2021/08/31 07:41:37;;;;;;;107.20;48.27;;;16.10;99.90;;;;;;5023398;28;20261;-67
2021/08/31 07:44:03;;;;;;;103.00;46.63;;;16.00;99.90;;;;;;5031569;28;20286;-66
2021/08/31 07:46:28;;;;;;;95.23;44.13;;;16.10;99.90;;;;;;5021105;28;20673;-66
2021/08/31 07:48:54;;;;;;;87.33;42.97;;;16.10;99.90;;;;;;5011541;28;20168;-67
2021/08/31 07:51:20;;;;;;;81.67;43.50;;;16.10;99.90;;;;;;5010330;28;20176;-67
2021/08/31 07:53:45;;;;;;;81.33;43.03;;;16.10;99.90;;;;;;5012704;28;20542;-67
2021/08/31 07:56:11;;;;;;;81.27;41.33;;;16.10;99.90;;;;;;5018022;28;20195;-67
2021/08/31 07:58:37;;;;;;;75.93;39.60;;;16.20;99.90;;;;;;5020596;28;20168;-66
2021/08/31 08:01:03;;;;;;;74.77;42.00;;;16.20;99.90;;;;;;5027898;28;20573;-67
2021/08/31 08:03:29;;;;;;;66.97;39.27;;;16.20;99.90;;;;;;5018990;28;20211;-66
2021/08/31 08:05:55;;;;;;;71.80;39.87;;;16.30;99.90;;;;;;5030806;28;20675;-67
2021/08/31 08:08:21;;;;;;;58.43;35.43;;;16.30;99.90;;;;;;5011790;28;20242;-66
2021/08/31 08:10:46;;;;;;;58.40;36.13;;;16.30;99.90;;;;;;5011192;28;20665;-66
2021/08/31 08:13:12;;;;;;;57.53;37.50;;;16.40;99.90;;;;;;5012807;28;20660;-67
2021/08/31 08:15:38;;;;;;;52.70;34.03;;;16.40;99.90;;;;;;5020834;28;20657;-67
2021/08/31 08:18:04;;;;;;;44.93;32.37;;;16.60;99.90;;;;;;5027834;28;20211;-66
2021/08/31 08:20:29;;;;;;;49.47;32.30;;;16.70;99.90;;;;;;5011389;28;20578;-66
2021/08/31 08:22:55;;;;;;;46.23;31.03;;;16.70;99.90;;;;;;5019602;28;20188;-67
2021/08/31 08:25:21;;;;;;;41.60;28.53;;;16.80;99.90;;;;;;5028953;28;20225;-67
2021/08/31 08:27:47;;;;;;;41.60;29.17;;;16.80;99.90;;;;;;5021638;28;20218;-68
2021/08/31 08:30:13;;;;;;;41.30;27.27;;;16.60;99.90;;;;;;5016347;28;20889;-67
2021/08/31 08:32:39;;;;;;;35.43;27.03;;;16.70;99.90;;;;;;5022749;28;20175;-67
2021/08/31 08:35:06;;;;;;;36.00;26.43;;;16.70;99.90;;;;;;5019387;28;20188;-66
2021/08/31 08:37:32;;;;;;;35.17;26.00;;;16.60;99.90;;;;;;5028602;28;20274;-67
2021/08/31 08:39:58;;;;;;;37.10;25.43;;;16.60;99.90;;;;;;5025855;28;20191;-66
2021/08/31 08:42:24;;;;;;;35.17;25.50;;;16.50;99.90;;;;;;5030308;28;20187;-66
2021/08/31 08:44:49;;;;;;;30.23;23.60;;;16.40;99.90;;;;;;5030890;28;20182;-67
2021/08/31 08:47:15;;;;;;;31.83;23.70;;;16.40;99.90;;;;;;5027744;28;20211;-67
2021/08/31 08:49:45;;;;;;;29.57;23.80;;;16.40;99.90;;;;;;5030700;28;20222;-67
2021/08/31 08:52:11;;;;;;;31.97;26.00;;;16.40;99.90;;;;;;5020815;28;20231;-66
2021/08/31 08:54:37;;;;;;;33.37;24.13;;;16.30;99.90;;;;;;5012394;28;20179;-67
2021/08/31 08:57:03;;;;;;;31.17;24.87;;;16.40;99.90;;;;;;5016283;28;20207;-66
2021/08/31 08:59:29;;;;;;;29.83;23.63;;;16.50;99.90;;;;;;5012947;28;20176;-68
2021/08/31 09:01:55;;;;;;;31.43;24.07;;;16.50;99.90;;;;;;5024634;28;20195;-68
2021/08/31 09:04:45;;;;;;;28.67;23.17;;;16.50;99.90;;;;;;5033723;28;20193;-67
2021/08/31 09:07:17;;;;;;;28.03;22.30;;;16.60;99.90;;;;;;5020020;28;20211;-67
2021/08/31 09:09:44;;;;;;;26.50;21.83;;;16.60;99.90;;;;;;5032420;28;20188;-67
2021/08/31 09:12:33;;;;;;;28.60;21.70;;;16.50;99.90;;;;;;5025292;28;20191;-67
2021/08/31 09:15:25;;;;;;;27.60;22.57;;;16.50;99.90;;;;;;5032357;28;20183;-67
2021/08/31 09:20:45;;;;;;;24.43;21.10;;;16.50;99.90;;;;;;5014588;28;20194;-67
2021/08/31 09:23:18;;;;;;;23.93;21.07;;;16.60;99.90;;;;;;5033980;28;20183;-66
2021/08/31 09:25:46;;;;;;;23.93;20.83;;;16.80;99.90;;;;;;5032179;28;20345;-67
2021/08/31 09:28:30;;;;;;;25.43;22.13;;;16.80;99.90;;;;;;5034091;28;20199;-68
2021/08/31 09:31:10;;;;;;;25.17;20.30;;;16.90;99.90;;;;;;5029890;28;20195;-66
2021/08/31 09:33:39;;;;;;;28.17;21.23;;;16.90;99.90;;;;;;5031479;28;20281;-67
2021/08/31 09:36:20;;;;;;;23.43;21.00;;;17.00;99.90;;;;;;5033063;28;20253;-68
2021/08/31 09:38:53;;;;;;;28.80;19.70;;;17.10;99.90;;;;;;5033827;28;20777;-68
2021/08/31 09:41:33;;;;;;;29.73;21.73;;;17.30;99.90;;;;;;5017986;28;20235;-67
2021/08/31 09:44:05;;;;;;;21.13;17.67;;;17.30;99.90;;;;;;5013956;28;20275;-67
2021/08/31 09:46:57;;;;;;;22.00;17.20;;;17.40;99.90;;;;;;5024180;28;20303;-68
2021/08/31 09:49:31;;;;;;;22.50;18.07;;;17.40;99.90;;;;;;5033551;28;20572;-67
2021/08/31 09:52:04;;;;;;;18.47;16.37;;;17.40;99.90;;;;;;5031333;28;20205;-68
2021/08/31 09:54:30;;;;;;;21.40;16.50;;;17.60;99.90;;;;;;5031921;28;20502;-68
2021/08/31 09:56:56;;;;;;;22.67;17.73;;;17.70;99.90;;;;;;5019124;28;20204;-68
2021/08/31 09:59:23;;;;;;;21.80;18.33;;;17.90;99.90;;;;;;5015456;28;20182;-68
2021/08/31 10:01:52;;;;;;;20.23;16.77;;;17.90;99.90;;;;;;5023243;28;21088;-67
2021/08/31 10:04:19;;;;;;;18.73;16.73;;;17.90;99.90;;;;;;5012971;28;20183;-68
2021/08/31 10:06:45;;;;;;;17.47;15.63;;;18.10;99.90;;;;;;5031462;28;20835;-66
2021/08/31 10:09:11;;;;;;;19.17;16.23;;;18.10;99.90;;;;;;5021441;28;20624;-67
2021/08/31 10:11:37;;;;;;;17.77;14.83;;;18.20;99.90;;;;;;5019530;28;20202;-66
2021/08/31 10:14:04;;;;;;;15.63;13.33;;;18.40;99.90;;;;;;5032710;28;20178;-67
2021/08/31 10:16:32;;;;;;;17.80;14.27;;;18.40;99.90;;;;;;5031386;28;20211;-68
2021/08/31 10:18:57;;;;;;;18.10;14.17;;;18.40;99.90;;;;;;5033102;28;20175;-68
2021/08/31 10:21:24;;;;;;;15.83;14.17;;;18.30;99.90;;;;;;5030627;28;20179;-67
2021/08/31 10:23:50;;;;;;;16.77;14.67;;;18.20;99.90;;;;;;5020416;28;20180;-67
2021/08/31 10:26:22;;;;;;;19.87;16.40;;;18.10;99.90;;;;;;5042697;28;20565;-68
2021/08/31 10:28:50;;;;;;;18.70;15.67;;;18.10;99.90;;;;;;5047716;28;20187;-67
2021/08/31 10:31:29;;;;;;;18.90;16.93;;;18.10;99.90;;;;;;5033518;28;20212;-66
2021/08/31 10:33:55;;;;;;;22.70;18.37;;;18.00;99.90;;;;;;5015993;28;20177;-68
2021/08/31 10:36:37;;;;;;;22.30;16.03;;;18.10;99.90;;;;;;5067271;22;20241;-65
2021/08/31 10:39:07;;;;;;;18.37;15.13;;;18.20;99.90;;;;;;5070235;28;20185;-65
2021/08/31 10:41:44;;;;;;;22.03;15.73;;;18.40;99.90;;;;;;5072026;28;20178;-65
2021/08/31 10:44:41;;;;;;;17.37;15.57;;;18.80;99.90;;;;;;5072304;28;20173;-64
2021/08/31 10:47:11;;;;;;;18.83;16.03;;;19.40;99.90;;;;;;5053441;28;20235;-65
2021/08/31 10:50:00;;;;;;;19.23;15.70;;;19.90;99.90;;;;;;5077369;28;20173;-65
2021/08/31 10:52:36;;;;;;;15.83;13.53;;;20.40;99.90;;;;;;5046809;28;20187;-65
2021/08/31 10:55:04;;;;;;;16.73;14.20;;;20.60;99.90;;;;;;5056512;28;20185;-65
2021/08/31 10:57:51;;;;;;;14.30;11.73;;;20.80;99.90;;;;;;5063109;28;20606;-65
2021/08/31 11:00:16;;;;;;;13.03;11.67;;;21.10;99.90;;;;;;5069934;28;20185;-65
2021/08/31 11:02:51;;;;;;;14.07;11.90;;;21.60;99.90;;;;;;5066535;28;20174;-65
2021/08/31 11:05:25;;;;;;;13.47;12.17;;;21.60;99.90;;;;;;5063359;28;20257;-65
2021/08/31 11:07:52;;;;;;;13.63;12.07;;;21.70;99.90;;;;;;5052897;28;20222;-65
2021/08/31 11:10:30;;;;;;;12.52;11.23;;;22.30;99.90;;;;;;5055610;28;20182;-65
2021/08/31 11:12:56;;;;;;;12.40;11.18;;;23.00;99.90;;;;;;5068273;28;20224;-65
2021/08/31 11:15:27;;;;;;;13.45;12.05;;;23.70;99.90;;;;;;5059640;28;20174;-65
2021/08/31 11:17:53;;;;;;;14.32;12.77;;;23.60;99.90;;;;;;5068521;28;20202;-65
2021/08/31 11:20:33;;;;;;;13.07;11.77;;;23.50;99.90;;;;;;5060318;28;20191;-65
2021/08/31 11:23:19;;;;;;;12.90;11.60;;;23.10;99.90;;;;;;5051808;28;20266;-65
2021/08/31 11:25:54;;;;;;;14.60;11.93;;;23.00;99.90;;;;;;5063318;28;20177;-65
2021/08/31 11:28:27;;;;;;;12.75;11.43;;;23.40;99.90;;;;;;5067749;28;20201;-65
2021/08/31 11:30:56;;;;;;;12.95;11.45;;;24.30;99.90;;;;;;5061759;28;20166;-65
2021/08/31 11:33:27;;;;;;;13.15;11.35;;;24.70;99.90;;;;;;5058757;28;20173;-65
2021/08/31 11:35:57;;;;;;;11.52;10.43;;;24.40;99.90;;;;;;5056615;28;20202;-65
2021/08/31 11:39:03;;;;;;;13.38;11.20;;;24.00;99.90;;;;;;5071636;28;20512;-65
2021/08/31 11:41:44;;;;;;;11.70;10.57;;;23.90;99.90;;;;;;5058120;28;20182;-65
2021/08/31 11:44:20;;;;;;;11.15;10.07;;;24.00;99.90;;;;;;5056169;28;20261;-65
2021/08/31 11:46:51;;;;;;;10.45;9.45;;;23.80;99.90;;;;;;5059362;28;20290;-65
2021/08/31 11:49:24;;;;;;;11.07;9.98;;;23.40;99.90;;;;;;5051302;28;20693;-65
2021/08/31 11:52:11;;;;;;;9.95;8.95;;;23.00;99.90;;;;;;5052347;28;20194;-65
2021/08/31 11:54:42;;;;;;;11.40;8.43;;;23.00;99.90;;;;;;5055795;28;20167;-65
2021/08/31 11:57:08;;;;;;;9.32;8.43;;;23.10;99.90;;;;;;5061529;28;20206;-65
2021/08/31 11:59:45;;;;;;;10.68;9.45;;;23.40;99.90;;;;;;5071165;28;20185;-64
2021/08/31 12:02:16;;;;;;;9.80;8.73;;;23.80;99.90;;;;;;5059836;28;20198;-65
2021/08/31 12:05:05;;;;;;;9.02;8.02;;;24.00;99.90;;;;;;5053418;28;20179;-65
2021/08/31 12:07:37;;;;;;;10.52;9.32;;;24.50;99.90;;;;;;5051160;28;20217;-65
2021/08/31 12:10:29;;;;;;;11.82;9.02;;;24.60;99.90;;;;;;5070083;28;20181;-65
2021/08/31 12:12:55;;;;;;;10.02;8.95;;;24.80;99.90;;;;;;5067050;28;20227;-65
2021/08/31 12:15:25;;;;;;;10.05;8.98;;;24.60;99.90;;;;;;5051012;28;20695;-64
2021/08/31 12:18:00;;;;;;;9.35;8.52;;;24.10;99.90;;;;;;5065511;28;20208;-64
2021/08/31 12:20:26;;;;;;;12.68;8.68;;;23.70;99.90;;;;;;5070990;28;20165;-65
2021/08/31 12:22:56;;;;;;;8.98;8.05;;;23.90;99.90;;;;;;5053762;28;20217;-64
2021/08/31 12:25:22;;;;;;;10.18;9.30;;;24.30;99.90;;;;;;5051197;28;20167;-65
2021/08/31 12:27:53;;;;;;;11.00;8.55;;;24.30;99.90;;;;;;5055108;28;20756;-65
2021/08/31 12:30:39;;;;;;;10.25;8.80;;;24.50;99.90;;;;;;5054903;28;20175;-65
2021/08/31 12:33:06;;;;;;;9.25;8.13;;;24.90;99.90;;;;;;5071033;28;20220;-65
2021/08/31 12:35:39;;;;;;;8.68;7.97;;;25.10;99.90;;;;;;5055736;28;20175;-65